Time;durP1;ratioP1;P1;durP2;ratioP2;P2;SDS_P1;SDS_P2;PMS_P1;PMS_P2;Temp;Humidity;BMP_temperature;BMP_pressure;BME280_temperature;BME280_humidity;BME280_pressure;Samples;Min_cycle;Max_cycle;Signal;HPM_P1;HPM_P2
2023/04/12 00:01:05;;;;;;;3.60;1.20;;;;;;;10.13;100.00;98947.04;105045;1263;72961;-47
2023/04/12 00:03:34;;;;;;;4.30;1.40;;;;;;;10.12;100.00;98940.86;104748;1263;167169;-44
2023/04/12 00:06:02;;;;;;;2.30;1.10;;;;;;;10.10;100.00;98936.11;106748;1261;60209;-50
2023/04/12 00:08:37;;;;;;;9.90;1.60;;;;;;;10.07;100.00;98930.00;105069;1262;72281;-49
2023/04/12 00:11:06;;;;;;;3.30;1.60;;;;;;;10.05;100.00;98930.30;104698;1266;66594;-47
2023/04/12 00:13:34;;;;;;;2.80;1.60;;;;;;;10.02;100.00;98930.34;105232;1263;73281;-48
2023/04/12 00:16:08;;;;;;;1.50;1.10;;;;;;;9.99;100.00;98925.86;104851;1267;61894;-52
2023/04/12 00:18:36;;;;;;;2.20;1.80;;;;;;;9.97;100.00;98926.31;104797;1265;59554;-47
2023/04/12 00:21:04;;;;;;;2.20;1.40;;;;;;;9.96;100.00;98921.88;105123;1266;72380;-49
2023/04/12 00:23:36;;;;;;;2.90;1.80;;;;;;;9.97;100.00;98920.05;104770;1268;66311;-51
2023/04/12 00:26:05;;;;;;;2.70;1.30;;;;;;;9.97;100.00;98923.65;106074;1263;70845;-48
2023/04/12 00:28:33;;;;;;;2.50;1.60;;;;;;;9.96;100.00;98919.76;104890;1267;61960;-50
2023/04/12 00:31:01;;;;;;;5.50;2.20;;;;;;;9.92;100.00;98918.77;104848;1264;60083;-49
2023/04/12 00:33:29;;;;;;;3.40;1.70;;;;;;;9.90;100.00;98916.02;105629;1263;72094;-54
2023/04/12 00:36:01;;;;;;;2.80;1.80;;;;;;;9.87;100.00;98919.90;104877;1265;66169;-47
2023/04/12 00:38:29;;;;;;;5.40;2.40;;;;;;;9.81;100.00;98915.63;106777;1264;72963;-53
2023/04/12 00:40:59;;;;;;;3.40;1.70;;;;;;;9.72;100.00;98914.34;104764;1267;60792;-50
2023/04/12 00:43:28;;;;;;;6.20;2.30;;;;;;;9.67;100.00;98910.17;105331;1266;61521;-52
2023/04/12 00:45:56;;;;;;;3.40;2.20;;;;;;;9.65;100.00;98908.31;104868;1266;73002;-47
2023/04/12 00:48:30;;;;;;;6.90;2.90;;;;;;;9.61;100.00;98904.64;104936;1264;68196;-48
2023/04/12 00:50:59;;;;;;;3.30;2.60;;;;;;;9.56;100.00;98899.56;105016;1264;70849;-47
2023/04/12 00:53:28;;;;;;;4.40;2.70;;;;;;;9.50;100.00;98896.47;105061;1267;60733;-50
2023/04/12 00:55:57;;;;;;;4.40;3.40;;;;;;;9.46;100.00;98896.13;106008;1262;60666;-50
2023/04/12 00:58:25;;;;;;;5.60;2.90;;;;;;;9.42;100.00;98892.08;105122;1267;73297;-51
2023/04/12 01:00:59;;;;;;;3.10;2.80;;;;;;;9.36;100.00;98887.08;104891;1267;66542;-49
2023/04/12 01:03:29;;;;;;;4.00;2.50;;;;;;;9.29;100.00;98887.08;105209;1263;71873;-48
2023/04/12 01:06:19;;;;;;;4.00;3.30;;;;;;;9.25;100.00;98882.16;104777;1263;61380;-50
2023/04/12 01:09:22;;;;;;;4.90;3.40;;;;;;;9.19;100.00;98882.65;104939;1264;61185;-53
2023/04/12 01:12:22;;;;;;;4.40;3.30;;;;;;;9.19;100.00;98880.89;104669;1265;73333;-49
2023/04/12 01:15:07;;;;;;;4.70;3.00;;;;;;;9.20;100.00;98875.23;104868;1264;67240;-49
2023/04/12 01:17:39;;;;;;;4.70;3.50;;;;;;;9.20;100.00;98876.86;104746;1267;73913;-50
2023/04/12 01:20:15;;;;;;;7.80;4.40;;;;;;;9.18;100.00;98867.14;105216;1264;60411;-49
2023/04/12 01:23:15;;;;;;;4.90;3.50;;;;;;;9.11;100.00;98865.39;104798;1267;59761;-50
2023/04/12 01:25:46;;;;;;;11.90;3.90;;;;;;;9.08;100.00;98863.93;105425;1264;74214;-51
2023/04/12 01:28:16;;;;;;;4.00;3.40;;;;;;;9.04;100.00;98858.77;105023;1264;66698;-48
2023/04/12 01:30:47;;;;;;;6.10;3.10;;;;;;;9.01;100.00;98854.66;105465;1263;73067;-51
2023/04/12 01:33:16;;;;;;;4.10;3.70;;;;;;;8.96;100.00;98852.29;104586;1268;62497;-47
2023/04/12 01:35:44;;;;;;;4.40;3.90;;;;;;;8.92;100.00;98842.67;104989;1268;59795;-52
2023/04/12 01:38:12;;;;;;;10.60;3.90;;;;;;;8.91;100.00;98836.86;104954;1270;71744;-47
2023/04/12 01:40:42;;;;;;;8.00;4.50;;;;;;;8.90;100.00;98837.44;104583;1263;65914;-48
2023/04/12 01:43:12;;;;;;;4.80;4.20;;;;;;;8.87;100.00;98828.84;104730;1264;71969;-46
2023/04/12 01:45:40;;;;;;;6.20;3.60;;;;;;;8.82;100.00;98824.65;106854;1264;61672;-49
2023/04/12 01:48:09;;;;;;;4.80;3.40;;;;;;;8.77;100.00;98823.87;104936;1264;59666;-50
2023/04/12 01:50:54;;;;;;;4.80;3.80;;;;;;;8.70;100.00;98818.67;106727;1265;71632;-46
2023/04/12 01:53:35;;;;;;;4.40;3.90;;;;;;;8.66;100.00;98817.31;104702;1265;66448;-48
2023/04/12 01:56:08;;;;;;;5.40;3.30;;;;;;;8.69;100.00;98814.96;104864;1259;71484;-47
2023/04/12 01:58:37;;;;;;;4.70;3.50;;;;;;;8.71;100.00;98803.04;108590;1261;61184;-50
2023/04/12 02:01:05;;;;;;;7.60;4.40;;;;;;;8.72;100.00;98800.31;108580;1260;60210;-51
2023/04/12 02:03:34;;;;;;;5.40;4.20;;;;;;;8.71;100.00;98798.41;108475;1261;73257;-49
2023/04/12 02:06:02;;;;;;;7.70;4.10;;;;;;;8.71;100.00;98798.41;108640;1260;66114;-50
2023/04/12 02:08:32;;;;;;;2.80;2.30;;;;;;;8.70;100.00;98792.54;108482;1261;74691;-50
2023/04/12 02:11:00;;;;;;;3.30;3.00;;;;;;;8.69;100.00;98793.85;108550;1260;63125;-53
2023/04/12 02:13:28;;;;;;;4.20;2.70;;;;;;;8.68;100.00;98788.71;106161;1259;60433;-49
2023/04/12 02:15:58;;;;;;;2.90;2.50;;;;;;;8.67;100.00;98782.20;104929;1264;74482;-51
2023/04/12 02:18:28;;;;;;;5.90;2.60;;;;;;;8.66;100.00;98779.35;104895;1260;67076;-50
2023/04/12 02:20:57;;;;;;;2.40;2.20;;;;;;;8.70;100.00;98777.35;105970;1261;74037;-49
2023/04/12 02:23:31;;;;;;;3.20;2.80;;;;;;;8.74;100.00;98774.09;108544;1260;61292;-50
2023/04/12 02:26:00;;;;;;;3.30;2.90;;;;;;;8.77;100.00;98774.11;108647;1260;59345;-50
2023/04/12 02:28:29;;;;;;;3.30;3.00;;;;;;;8.76;100.00;98771.31;108608;1260;72102;-50
2023/04/12 02:30:59;;;;;;;3.60;2.80;;;;;;;8.71;100.00;98770.84;108567;1260;65522;-51
2023/04/12 02:33:29;;;;;;;7.50;3.70;;;;;;;8.70;100.00;98771.09;108627;1261;72848;-50
2023/04/12 02:36:01;;;;;;;13.80;3.60;;;;;;;8.65;100.00;98765.83;107514;1261;61708;-50
2023/04/12 02:38:30;;;;;;;2.50;2.00;;;;;;;8.60;100.00;98763.41;108625;1260;60058;-51
2023/04/12 02:40:59;;;;;;;4.10;3.30;;;;;;;8.60;100.00;98761.26;108534;1259;72459;-50
2023/04/12 02:43:28;;;;;;;3.10;2.10;;;;;;;8.59;100.00;98758.67;108487;1260;65568;-50
2023/04/12 02:45:59;;;;;;;3.60;2.20;;;;;;;8.55;100.00;98757.10;105194;1261;72930;-49
2023/04/12 02:48:28;;;;;;;5.50;2.70;;;;;;;8.54;100.00;98752.66;105348;1259;60552;-50
2023/04/12 02:50:57;;;;;;;4.60;2.90;;;;;;;8.56;100.00;98751.69;104823;1259;61977;-52
2023/04/12 02:53:30;;;;;;;4.20;2.10;;;;;;;8.59;100.00;98749.20;105519;1260;74053;-50
2023/04/12 02:56:20;;;;;;;4.70;2.90;;;;;;;8.63;100.00;98749.52;104755;1260;67413;-53
2023/04/12 02:58:51;;;;;;;6.70;1.70;;;;;;;8.63;100.00;98742.90;105422;1259;73975;-50
2023/04/12 03:01:30;;;;;;;6.10;1.70;;;;;;;8.62;100.00;98744.90;105120;1264;61611;-50
2023/04/12 03:04:17;;;;;;;4.90;2.00;;;;;;;8.62;100.00;98741.88;105135;1262;60001;-50
2023/04/12 03:06:52;;;;;;;2.70;2.30;;;;;;;8.64;100.00;98741.91;104778;1260;74019;-51
2023/04/12 03:09:31;;;;;;;4.30;1.80;;;;;;;8.66;100.00;98737.71;104647;1264;65937;-50
2023/04/12 03:11:59;;;;;;;7.00;2.10;;;;;;;8.65;100.00;98735.63;105953;1261;72338;-51
2023/04/12 03:14:35;;;;;;;3.60;2.20;;;;;;;8.63;100.00;98732.00;104709;1264;61949;-51
2023/04/12 03:17:04;;;;;;;3.00;2.20;;;;;;;8.62;100.00;98731.11;105281;1259;61067;-48
2023/04/12 03:19:34;;;;;;;3.70;2.00;;;;;;;8.59;100.00;98729.15;105233;1258;71772;-49
2023/04/12 03:22:06;;;;;;;5.30;2.60;;;;;;;8.57;100.00;98728.41;105487;1257;67165;-51
2023/04/12 03:24:37;;;;;;;3.70;2.10;;;;;;;8.59;100.00;98726.33;105983;1259;73676;-51
2023/04/12 03:27:07;;;;;;;4.10;2.70;;;;;;;8.62;100.00;98727.55;106211;1258;61895;-53
2023/04/12 03:29:37;;;;;;;4.90;3.30;;;;;;;8.64;100.00;98728.88;105147;1258;60371;-54
2023/04/12 03:32:06;;;;;;;3.50;2.20;;;;;;;8.64;100.00;98720.65;105667;1258;73210;-51
2023/04/12 03:34:34;;;;;;;3.80;3.40;;;;;;;8.62;100.00;98719.33;105646;1258;68344;-53
2023/04/12 03:37:09;;;;;;;4.20;2.90;;;;;;;8.61;100.00;98719.38;105438;1258;73396;-51
2023/04/12 03:39:42;;;;;;;3.60;2.40;;;;;;;8.59;100.00;98712.52;105467;1260;62871;-50
2023/04/12 03:42:10;;;;;;;2.60;2.30;;;;;;;8.58;100.00;98713.14;105129;1257;60291;-54
2023/04/12 03:44:53;;;;;;;3.80;2.90;;;;;;;8.56;100.00;98709.48;105455;1257;73629;-51
2023/04/12 03:47:26;;;;;;;3.00;2.00;;;;;;;8.54;100.00;98707.09;105565;1258;66609;-54
2023/04/12 03:49:55;;;;;;;2.50;2.30;;;;;;;8.58;100.00;98707.77;105361;1262;72799;-54
2023/04/12 03:52:39;;;;;;;4.60;2.00;;;;;;;8.60;100.00;98706.00;105273;1259;61860;-54
2023/04/12 03:55:08;;;;;;;2.20;2.00;;;;;;;8.63;100.00;98703.73;105147;1259;59669;-53
2023/04/12 03:57:36;;;;;;;3.20;2.50;;;;;;;8.62;100.00;98705.54;105894;1263;73685;-51
2023/04/12 04:00:07;;;;;;;3.20;2.00;;;;;;;8.63;100.00;98703.72;105212;1259;66697;-52
2023/04/12 04:03:08;;;;;;;3.10;1.80;;;;;;;8.66;100.00;98702.85;105257;1262;73617;-53
2023/04/12 04:05:55;;;;;;;2.60;1.70;;;;;;;8.66;100.00;98701.08;105068;1262;63603;-53
2023/04/12 04:08:24;;;;;;;3.20;1.80;;;;;;;8.66;100.00;98699.08;106226;1258;61367;-55
2023/04/12 04:10:53;;;;;;;2.10;1.80;;;;;;;8.67;100.00;98700.13;105192;1262;76404;-53
2023/04/12 04:13:32;;;;;;;2.70;1.90;;;;;;;8.68;100.00;98700.89;105824;1263;65358;-53
2023/04/12 04:16:05;;;;;;;4.80;2.40;;;;;;;8.71;100.00;98703.08;105535;1259;72413;-53
2023/04/12 04:18:34;;;;;;;2.90;1.40;;;;;;;8.73;100.00;98701.71;105384;1258;61438;-51
2023/04/12 04:21:08;;;;;;;3.60;2.00;;;;;;;8.77;100.00;98700.77;108525;1257;59648;-54
2023/04/12 04:23:43;;;;;;;5.20;1.90;;;;;;;8.80;100.00;98700.25;105581;1263;75076;-52
2023/04/12 04:26:19;;;;;;;2.50;1.80;;;;;;;8.82;100.00;98700.84;105738;1259;67964;-52
2023/04/12 04:29:00;;;;;;;2.40;1.70;;;;;;;8.85;100.00;98696.20;105556;1259;73586;-51
2023/04/12 04:31:36;;;;;;;2.40;1.60;;;;;;;8.88;100.00;98697.64;106102;1259;62173;-52
2023/04/12 04:34:05;;;;;;;5.70;1.70;;;;;;;8.86;100.00;98695.79;105107;1263;60404;-52
2023/04/12 04:36:37;;;;;;;3.70;1.70;;;;;;;8.84;100.00;98696.27;105391;1261;75130;-54
2023/04/12 04:39:14;;;;;;;3.00;1.90;;;;;;;8.83;100.00;98695.59;105000;1259;67913;-53
2023/04/12 04:41:45;;;;;;;3.50;1.70;;;;;;;8.81;100.00;98695.70;104532;1259;72014;-53
2023/04/12 04:44:20;;;;;;;2.80;2.10;;;;;;;8.81;100.00;98694.64;104539;1261;61910;-53
2023/04/12 04:46:53;;;;;;;4.70;2.10;;;;;;;8.81;100.00;98696.98;104753;1258;60461;-53
2023/04/12 04:49:21;;;;;;;6.30;2.30;;;;;;;8.81;100.00;98693.91;104903;1263;73084;-52
2023/04/12 04:51:49;;;;;;;4.80;3.10;;;;;;;8.83;100.00;98693.48;105195;1259;66855;-52
2023/04/12 04:54:18;;;;;;;4.10;1.90;;;;;;;8.84;100.00;98696.45;108583;1259;73861;-53
2023/04/12 04:56:46;;;;;;;4.30;1.80;;;;;;;8.86;100.00;98694.68;105153;1263;61861;-54
2023/04/12 04:59:17;;;;;;;4.30;2.00;;;;;;;8.86;100.00;98692.56;105865;1261;60367;-54
2023/04/12 05:01:45;;;;;;;5.80;2.20;;;;;;;8.84;100.00;98689.64;104979;1259;74389;-53
2023/04/12 05:04:19;;;;;;;2.60;1.80;;;;;;;8.86;100.00;98695.25;108724;1257;66879;-53
2023/04/12 05:06:47;;;;;;;3.20;1.70;;;;;;;8.88;100.00;98692.63;108647;1258;73052;-52
2023/04/12 05:09:16;;;;;;;1.90;1.60;;;;;;;8.90;100.00;98692.88;105508;1259;60994;-55
2023/04/12 05:11:50;;;;;;;2.40;2.00;;;;;;;8.91;100.00;98696.92;104847;1259;61296;-55
2023/04/12 05:14:18;;;;;;;2.70;2.10;;;;;;;8.91;100.00;98690.28;108638;1258;75278;-53
2023/04/12 05:16:47;;;;;;;3.60;1.60;;;;;;;8.89;100.00;98685.94;108665;1259;66094;-53
2023/04/12 05:19:19;;;;;;;2.60;1.60;;;;;;;8.83;100.00;98682.16;108682;1257;72679;-53
2023/04/12 05:21:48;;;;;;;4.80;1.60;;;;;;;8.80;100.00;98688.58;108615;1258;61242;-53
2023/04/12 05:24:16;;;;;;;3.80;1.50;;;;;;;8.80;100.00;98685.74;108715;1258;61343;-52
2023/04/12 05:26:44;;;;;;;3.10;1.50;;;;;;;8.78;100.00;98680.30;108661;1257;73047;-52
2023/04/12 05:29:13;;;;;;;2.60;1.60;;;;;;;8.75;100.00;98679.41;108573;1258;68443;-52
2023/04/12 05:31:41;;;;;;;1.30;1.20;;;;;;;8.67;100.00;98678.45;108648;1259;71463;-53
2023/04/12 05:34:15;;;;;;;1.70;1.10;;;;;;;8.60;100.00;98675.62;108726;1258;62197;-53
2023/04/12 05:36:50;;;;;;;3.70;1.20;;;;;;;8.60;100.00;98677.61;108712;1258;58818;-52
2023/04/12 05:39:19;;;;;;;1.70;1.30;;;;;;;8.62;100.00;98676.23;108710;1258;72696;-52
2023/04/12 05:41:48;;;;;;;1.80;1.30;;;;;;;8.65;100.00;98670.90;108707;1257;68728;-53
2023/04/12 05:44:17;;;;;;;2.10;1.30;;;;;;;8.69;100.00;98663.85;108692;1259;71888;-52
2023/04/12 05:46:47;;;;;;;1.90;1.50;;;;;;;8.73;100.00;98659.11;105534;1259;60558;-52
2023/04/12 05:49:16;;;;;;;1.50;1.30;;;;;;;8.73;100.00;98658.95;105081;1258;60541;-51
2023/04/12 05:51:44;;;;;;;2.10;1.80;;;;;;;8.72;100.00;98655.99;108708;1258;74950;-52
2023/04/12 05:54:20;;;;;;;2.00;1.20;;;;;;;8.70;100.00;98654.47;107972;1263;64889;-53
2023/04/12 05:56:49;;;;;;;2.50;1.30;;;;;;;8.66;100.00;98655.77;105787;1259;72580;-52
2023/04/12 05:59:18;;;;;;;3.10;1.20;;;;;;;8.67;100.00;98653.61;105633;1261;61318;-50
2023/04/12 06:01:47;;;;;;;1.40;1.30;;;;;;;8.69;100.00;98653.30;106630;1259;60433;-52
2023/04/12 06:04:17;;;;;;;4.00;1.20;;;;;;;8.71;100.00;98650.33;105967;1259;75658;-53
2023/04/12 06:06:47;;;;;;;2.70;1.10;;;;;;;8.69;100.00;98646.11;105930;1259;66191;-54
2023/04/12 06:09:16;;;;;;;1.20;1.10;;;;;;;8.66;100.00;98644.73;107971;1260;71712;-52
2023/04/12 06:11:44;;;;;;;3.60;1.60;;;;;;;8.64;100.00;98644.98;105209;1259;60570;-51
2023/04/12 06:14:16;;;;;;;3.80;1.50;;;;;;;8.67;100.00;98641.80;105166;1257;60441;-52
2023/04/12 06:16:46;;;;;;;2.10;1.40;;;;;;;8.70;100.00;98644.11;105262;1264;72816;-52
2023/04/12 06:19:14;;;;;;;2.20;1.30;;;;;;;8.70;100.00;98643.21;104556;1259;67760;-50
2023/04/12 06:21:42;;;;;;;1.30;1.20;;;;;;;8.73;100.00;98644.13;104680;1261;74404;-55
2023/04/12 06:24:09;;;;;;;1.20;0.90;;;;;;;8.74;100.00;98642.66;104679;1264;61206;-48
2023/04/12 06:26:38;;;;;;;1.30;1.00;;;;;;;8.75;100.00;98640.25;104747;1258;60826;-52
2023/04/12 06:29:11;;;;;;;1.50;1.00;;;;;;;8.77;100.00;98638.55;104705;1259;73093;-53
2023/04/12 06:31:40;;;;;;;1.50;1.10;;;;;;;8.77;100.00;98633.90;105261;1257;67259;-51
2023/04/12 06:34:08;;;;;;;1.90;1.10;;;;;;;8.76;100.00;98636.64;104709;1259;73730;-53
2023/04/12 06:36:40;;;;;;;1.30;0.90;;;;;;;8.77;100.00;98631.37;105227;1261;62315;-52
2023/04/12 06:39:08;;;;;;;1.10;1.00;;;;;;;8.79;100.00;98630.88;104813;1262;61728;-51
2023/04/12 06:41:37;;;;;;;2.10;1.40;;;;;;;8.79;100.00;98629.11;104829;1259;73850;-51
2023/04/12 06:44:06;;;;;;;0.90;0.80;;;;;;;8.79;100.00;98628.05;105093;1259;67973;-51
2023/04/12 06:46:38;;;;;;;0.70;0.70;;;;;;;8.78;100.00;98627.71;104969;1259;72187;-53
2023/04/12 06:49:07;;;;;;;1.60;0.80;;;;;;;8.80;100.00;98628.33;104985;1259;61776;-52
2023/04/12 06:51:35;;;;;;;1.10;0.90;;;;;;;8.82;100.00;98624.81;105244;1259;60539;-52
2023/04/12 06:54:04;;;;;;;4.30;1.10;;;;;;;8.85;100.00;98622.49;105052;1258;71728;-52
2023/04/12 06:56:33;;;;;;;1.50;0.90;;;;;;;8.88;100.00;98625.35;105207;1257;67319;-53
2023/04/12 06:59:01;;;;;;;2.00;1.00;;;;;;;8.91;100.00;98628.77;105433;1259;72590;-51
2023/04/12 07:01:30;;;;;;;1.80;1.40;;;;;;;8.94;100.00;98625.67;105993;1262;62769;-53
2023/04/12 07:03:58;;;;;;;1.30;1.00;;;;;;;8.94;100.00;98623.02;104923;1259;60442;-51
2023/04/12 07:06:27;;;;;;;3.10;1.00;;;;;;;8.96;100.00;98620.94;105457;1262;74522;-50
2023/04/12 07:08:57;;;;;;;1.20;1.10;;;;;;;8.99;100.00;98619.00;104989;1259;67406;-52
2023/04/12 07:11:27;;;;;;;3.10;1.90;;;;;;;8.97;100.00;98619.23;104901;1259;71971;-51
2023/04/12 07:14:00;;;;;;;1.40;1.00;;;;;;;8.97;100.00;98610.81;104541;1259;61188;-51
2023/04/12 07:16:29;;;;;;;1.30;1.20;;;;;;;9.00;100.00;98612.28;104572;1258;60560;-52
2023/04/12 07:18:59;;;;;;;1.10;1.00;;;;;;;9.04;100.00;98609.17;105851;1259;72012;-52
2023/04/12 07:21:31;;;;;;;1.10;0.80;;;;;;;9.07;100.00;98609.88;108670;1261;66476;-54
2023/04/12 07:24:00;;;;;;;1.20;0.80;;;;;;;9.09;100.00;98604.38;105479;1259;71875;-51
2023/04/12 07:26:29;;;;;;;1.40;0.90;;;;;;;9.11;100.00;98604.08;105576;1262;61590;-52
2023/04/12 07:29:01;;;;;;;2.30;1.00;;;;;;;9.13;100.00;98606.11;105111;1259;60524;-52
2023/04/12 07:31:29;;;;;;;2.60;0.80;;;;;;;9.15;100.00;98603.17;105948;1263;73863;-52
2023/04/12 07:33:57;;;;;;;1.50;1.00;;;;;;;9.16;100.00;98598.77;106183;1264;67397;-51
2023/04/12 07:36:26;;;;;;;0.90;0.70;;;;;;;9.19;100.00;98598.24;105356;1259;72960;-53
2023/04/12 07:38:54;;;;;;;1.80;0.80;;;;;;;9.22;100.00;98600.73;105664;1259;63632;-53
2023/04/12 07:41:28;;;;;;;1.00;0.80;;;;;;;9.26;100.00;98599.46;105085;1263;60429;-54
2023/04/12 07:43:58;;;;;;;1.20;0.90;;;;;;;9.27;100.00;98600.26;105124;1265;75314;-54
2023/04/12 07:46:26;;;;;;;1.00;0.90;;;;;;;9.28;100.00;98596.95;105074;1259;66483;-54
2023/04/12 07:48:55;;;;;;;1.30;0.80;;;;;;;9.26;100.00;98601.93;105062;1264;72156;-52
2023/04/12 07:51:25;;;;;;;2.00;1.00;;;;;;;9.24;100.00;98600.98;105070;1264;62023;-51
2023/04/12 07:53:56;;;;;;;2.60;1.00;;;;;;;9.25;100.00;98601.29;105746;1261;59678;-53
2023/04/12 07:56:25;;;;;;;1.10;0.80;;;;;;;9.26;100.00;98599.98;105591;1263;74233;-51
2023/04/12 07:58:53;;;;;;;0.80;0.60;;;;;;;9.27;100.00;98603.27;105157;1258;68394;-53
2023/04/12 08:01:21;;;;;;;1.10;0.70;;;;;;;9.29;100.00;98599.76;108644;1259;73187;-54
2023/04/12 08:03:50;;;;;;;1.20;0.70;;;;;;;9.31;100.00;98601.30;108675;1258;59746;-54
2023/04/12 08:06:18;;;;;;;0.70;0.60;;;;;;;9.25;100.00;98602.38;108739;1258;58803;-54
2023/04/12 08:08:46;;;;;;;0.70;0.50;;;;;;;9.24;100.00;98595.61;108779;1258;72993;-54
2023/04/12 08:11:14;;;;;;;0.70;0.70;;;;;;;9.26;100.00;98597.31;108717;1258;67737;-54
2023/04/12 08:13:43;;;;;;;0.80;0.60;;;;;;;9.29;100.00;98596.20;107950;1261;70541;-53
2023/04/12 08:16:13;;;;;;;1.40;0.60;;;;;;;9.33;100.00;98591.50;108558;1258;61205;-53
2023/04/12 08:18:42;;;;;;;1.40;0.70;;;;;;;9.36;100.00;98592.71;108774;1258;59997;-53
2023/04/12 08:21:10;;;;;;;1.00;0.60;;;;;;;9.40;100.00;98593.37;108640;1258;73982;-53
2023/04/12 08:23:38;;;;;;;1.40;0.60;;;;;;;9.42;100.00;98590.02;106775;1263;67046;-53
2023/04/12 08:26:06;;;;;;;0.60;0.60;;;;;;;9.43;100.00;98584.21;104915;1259;71500;-53
2023/04/12 08:28:34;;;;;;;1.80;0.60;;;;;;;9.43;100.00;98586.73;104995;1263;61938;-52
2023/04/12 08:31:07;;;;;;;1.30;0.60;;;;;;;9.45;100.00;98583.70;105018;1259;61324;-53
2023/04/12 08:33:35;;;;;;;0.60;0.50;;;;;;;9.47;100.00;98577.48;108496;1259;72663;-53
2023/04/12 08:36:03;;;;;;;0.80;0.50;;;;;;;9.49;100.00;98578.13;108660;1259;67314;-53
2023/04/12 08:38:31;;;;;;;1.20;0.60;;;;;;;9.53;100.00;98580.41;108681;1257;71422;-53
2023/04/12 08:41:04;;;;;;;2.00;0.50;;;;;;;9.57;100.00;98579.95;108515;1259;62366;-53
2023/04/12 08:43:38;;;;;;;0.60;0.50;;;;;;;9.64;100.00;98577.73;108030;1257;59898;-52
2023/04/12 08:46:06;;;;;;;0.60;0.40;;;;;;;9.69;100.00;98578.85;108428;1258;73170;-53
2023/04/12 08:48:35;;;;;;;1.50;0.50;;;;;;;9.73;100.00;98573.18;108668;1261;66354;-52
2023/04/12 08:51:03;;;;;;;0.50;0.50;;;;;;;9.75;100.00;98568.77;108421;1258;72519;-51
2023/04/12 08:53:32;;;;;;;0.50;0.50;;;;;;;9.74;100.00;98568.80;105877;1261;62315;-52
2023/04/12 08:56:09;;;;;;;0.70;0.60;;;;;;;9.77;100.00;98567.34;104994;1259;60456;-52
2023/04/12 08:58:39;;;;;;;2.40;0.50;;;;;;;9.82;100.00;98565.98;105087;1259;73218;-52
2023/04/12 09:01:13;;;;;;;1.90;0.60;;;;;;;9.85;100.00;98564.52;108649;1259;66341;-54
2023/04/12 09:03:42;;;;;;;3.70;0.50;;;;;;;9.82;100.00;98561.50;108498;1262;72891;-52
2023/04/12 09:06:11;;;;;;;0.40;0.40;;;;;;;9.79;100.00;98562.56;106011;1259;61166;-53
2023/04/12 09:08:52;;;;;;;1.10;0.50;;;;;;;9.81;100.00;98558.48;107133;1259;61543;-52
2023/04/12 09:11:29;;;;;;;0.60;0.50;;;;;;;9.86;100.00;98557.64;105065;1260;73515;-54
2023/04/12 09:13:57;;;;;;;0.90;0.70;;;;;;;9.89;100.00;98552.80;108062;1260;67619;-54
2023/04/12 09:16:53;;;;;;;0.80;0.60;;;;;;;9.89;100.00;98543.48;105219;1259;71958;-53
2023/04/12 09:19:34;;;;;;;0.90;0.60;;;;;;;9.86;100.00;98545.45;106697;1264;63652;-54
2023/04/12 09:22:02;;;;;;;0.50;0.50;;;;;;;9.83;100.00;98544.38;105978;1263;59160;-52
2023/04/12 09:24:30;;;;;;;2.00;0.50;;;;;;;9.81;100.00;98547.02;104946;1264;73852;-53
2023/04/12 09:27:03;;;;;;;0.60;0.50;;;;;;;9.78;100.00;98545.48;108559;1258;67517;-54
2023/04/12 09:29:32;;;;;;;0.60;0.50;;;;;;;9.75;100.00;98541.88;105386;1262;73218;-50
2023/04/12 09:32:07;;;;;;;1.10;0.50;;;;;;;9.76;100.00;98543.99;104308;1259;60463;-54
2023/04/12 09:34:35;;;;;;;0.50;0.50;;;;;;;9.71;100.00;98544.27;105230;1259;61885;-53
2023/04/12 09:37:13;;;;;;;0.60;0.60;;;;;;;9.73;100.00;98544.37;104779;1258;72654;-53
2023/04/12 09:39:48;;;;;;;0.80;0.70;;;;;;;9.77;100.00;98541.05;104994;1262;70055;-54
2023/04/12 09:42:15;;;;;;;1.20;0.50;;;;;;;9.81;100.00;98536.14;104896;1264;73335;-51
2023/04/12 09:45:01;;;;;;;1.90;0.60;;;;;;;9.84;100.00;98537.55;105918;1263;62169;-52
2023/04/12 09:47:37;;;;;;;0.70;0.60;;;;;;;9.82;100.00;98537.65;105611;1259;60450;-52
2023/04/12 09:50:07;;;;;;;0.60;0.60;;;;;;;9.85;100.00;98538.91;106114;1259;75077;-51
2023/04/12 09:52:41;;;;;;;0.80;0.70;;;;;;;9.88;100.00;98538.69;105195;1259;68351;-55
2023/04/12 09:55:09;;;;;;;1.40;0.70;;;;;;;9.93;100.00;98538.05;104997;1260;72038;-53
2023/04/12 09:57:41;;;;;;;0.60;0.50;;;;;;;9.97;100.00;98534.05;105255;1259;60679;-54
2023/04/12 10:00:17;;;;;;;0.50;0.50;;;;;;;9.99;100.00;98535.48;105184;1263;60509;-52
2023/04/12 10:02:50;;;;;;;1.50;0.40;;;;;;;10.03;100.00;98534.36;105161;1259;72764;-52
2023/04/12 10:05:21;;;;;;;0.80;0.50;;;;;;;10.05;100.00;98534.91;105534;1262;66627;-54
2023/04/12 10:07:50;;;;;;;0.60;0.60;;;;;;;10.07;100.00;98532.27;105835;1262;72753;-53
2023/04/12 10:10:19;;;;;;;1.50;0.60;;;;;;;10.08;100.00;98534.55;105942;1263;61088;-54
2023/04/12 10:12:47;;;;;;;0.50;0.50;;;;;;;10.07;100.00;98528.50;107001;1261;59635;-54
2023/04/12 10:15:16;;;;;;;0.50;0.50;;;;;;;10.08;100.00;98530.58;105359;1264;74106;-51
2023/04/12 10:17:52;;;;;;;0.80;0.80;;;;;;;10.09;100.00;98528.36;105278;1262;66318;-53
2023/04/12 10:20:21;;;;;;;1.00;0.60;;;;;;;10.09;100.00;98527.14;105547;1259;70860;-54
2023/04/12 10:22:53;;;;;;;0.60;0.50;;;;;;;10.07;100.00;98527.25;104981;1264;61978;-52
2023/04/12 10:25:24;;;;;;;1.20;0.60;;;;;;;10.08;100.00;98524.13;105129;1260;60359;-53
2023/04/12 10:27:52;;;;;;;1.90;0.50;;;;;;;10.09;100.00;98526.05;104988;1259;74161;-53
2023/04/12 10:30:27;;;;;;;0.60;0.60;;;;;;;10.10;100.00;98525.13;105065;1262;68289;-53
2023/04/12 10:33:03;;;;;;;0.70;0.50;;;;;;;10.10;100.00;98527.95;104890;1259;71930;-53
2023/04/12 10:35:55;;;;;;;1.20;0.60;;;;;;;10.10;100.00;98527.10;105209;1258;63358;-53
2023/04/12 10:38:30;;;;;;;1.20;0.60;;;;;;;10.08;100.00;98527.70;104859;1258;60480;-54
2023/04/12 10:41:15;;;;;;;0.50;0.50;;;;;;;10.10;100.00;98525.13;105338;1261;72401;-51
2023/04/12 10:43:46;;;;;;;1.10;0.70;;;;;;;10.12;100.00;98526.03;104872;1262;65388;-54
2023/04/12 10:46:37;;;;;;;0.80;0.60;;;;;;;10.15;100.00;98527.95;105285;1259;71744;-51
2023/04/12 10:49:08;;;;;;;1.20;0.50;;;;;;;10.15;100.00;98523.31;105003;1261;61507;-49
2023/04/12 10:52:04;;;;;;;3.70;0.50;;;;;;;10.16;100.00;98526.84;104993;1259;61091;-53
2023/04/12 10:54:35;;;;;;;0.60;0.60;;;;;;;10.16;100.00;98528.09;104402;1259;73855;-54
2023/04/12 10:57:05;;;;;;;2.30;0.60;;;;;;;10.17;100.00;98523.55;104417;1259;67378;-52
2023/04/12 10:59:56;;;;;;;0.90;0.60;;;;;;;10.17;100.00;98528.57;106218;1262;73638;-53
2023/04/12 11:02:24;;;;;;;0.60;0.50;;;;;;;10.18;100.00;98525.67;104530;1259;60973;-51
2023/04/12 11:05:09;;;;;;;0.70;0.50;;;;;;;10.20;100.00;98526.11;105480;1261;60554;-51
2023/04/12 11:07:58;;;;;;;0.60;0.60;;;;;;;10.21;100.00;98526.02;104561;1261;74341;-52
2023/04/12 11:10:45;;;;;;;1.00;0.50;;;;;;;10.21;100.00;98527.23;104778;1259;65541;-52
2023/04/12 11:13:37;;;;;;;0.50;0.50;;;;;;;10.21;100.00;98523.08;106438;1259;72032;-53
2023/04/12 11:16:11;;;;;;;0.60;0.50;;;;;;;10.20;100.00;98522.15;108629;1259;60165;-54
2023/04/12 11:18:40;;;;;;;0.50;0.50;;;;;;;10.21;100.00;98522.95;108554;1257;59340;-54
2023/04/12 11:21:08;;;;;;;0.80;0.60;;;;;;;10.22;100.00;98524.10;108630;1261;72972;-53
2023/04/12 11:23:42;;;;;;;7.30;0.80;;;;;;;10.27;100.00;98525.09;108611;1259;67641;-53
2023/04/12 11:26:10;;;;;;;1.90;0.50;;;;;;;10.29;100.00;98520.98;108566;1258;73221;-53
2023/04/12 11:28:38;;;;;;;1.30;0.40;;;;;;;10.30;100.00;98523.77;108692;1261;60554;-53
2023/04/12 11:31:07;;;;;;;2.10;0.50;;;;;;;10.31;100.00;98522.98;108724;1259;59528;-53
2023/04/12 11:33:37;;;;;;;1.10;0.50;;;;;;;10.31;100.00;98520.30;108747;1259;72669;-52
2023/04/12 11:36:12;;;;;;;0.60;0.50;;;;;;;10.35;100.00;98523.30;106387;1261;67400;-53
2023/04/12 11:38:41;;;;;;;1.00;0.70;;;;;;;10.38;100.00;98519.64;108719;1259;71889;-51
2023/04/12 11:41:10;;;;;;;5.10;2.20;;;;;;;10.41;100.00;98519.48;108647;1263;60712;-52
2023/04/12 11:43:38;;;;;;;3.30;3.00;;;;;;;10.43;100.00;98515.54;108695;1259;59518;-52
2023/04/12 11:46:06;;;;;;;1.90;1.10;;;;;;;10.46;100.00;98515.91;108707;1259;74035;-52